createdAt,value
2019-06-15T00:01:37.391Z,3.83
2019-06-15T00:04:04.030Z,4.13
2019-06-15T00:06:30.784Z,4.07
2019-06-15T00:08:57.397Z,3.90
2019-06-15T00:11:24.176Z,4.13
2019-06-15T00:13:50.753Z,4.83
2019-06-15T00:16:17.311Z,3.70
2019-06-15T00:18:44.325Z,3.80
2019-06-15T00:21:10.878Z,4.40
2019-06-15T00:23:37.460Z,4.90
2019-06-15T00:26:04.075Z,4.50
2019-06-15T00:28:30.856Z,4.30
2019-06-15T00:30:57.463Z,4.23
2019-06-15T00:33:23.925Z,3.60
2019-06-15T00:35:50.458Z,3.73
2019-06-15T00:38:16.957Z,3.47
2019-06-15T00:40:43.501Z,3.30
2019-06-15T00:43:10.332Z,3.60
2019-06-15T00:45:36.881Z,4.20
2019-06-15T00:48:03.356Z,3.60
2019-06-15T00:50:29.925Z,4.00
2019-06-15T00:52:56.471Z,4.63
2019-06-15T00:55:23.148Z,4.80
2019-06-15T00:57:49.919Z,3.80
2019-06-15T01:00:17.220Z,4.80
2019-06-15T01:02:43.770Z,4.57
2019-06-15T01:05:13.386Z,4.47
2019-06-15T01:07:40.679Z,4.60
2019-06-15T01:10:07.632Z,4.00
2019-06-15T01:12:36.806Z,4.20
2019-06-15T01:15:04.378Z,4.30
2019-06-15T01:17:30.962Z,4.70
2019-06-15T01:19:57.473Z,5.17
2019-06-15T01:22:23.974Z,4.77
2019-06-15T01:25:04.706Z,4.10
2019-06-15T01:27:19.017Z,4.40
2019-06-15T01:29:47.807Z,4.23
2019-06-15T01:32:14.682Z,4.30
2019-06-15T01:34:41.220Z,4.50
2019-06-15T01:37:07.833Z,4.73
2019-06-15T01:39:36.337Z,5.43
2019-06-15T01:42:03.384Z,4.97
2019-06-15T01:44:29.948Z,5.03
2019-06-15T01:46:56.507Z,5.10
2019-06-15T01:49:23.353Z,4.70
2019-06-15T01:51:49.892Z,4.80
2019-06-15T01:54:21.434Z,5.17
2019-06-15T01:56:47.922Z,5.07
2019-06-15T01:59:14.576Z,5.70
2019-06-15T02:01:41.433Z,5.07
2019-06-15T02:04:07.959Z,5.90
2019-06-15T02:06:34.925Z,5.53
2019-06-15T02:09:01.578Z,5.23
2019-06-15T02:11:28.131Z,5.93
2019-06-15T02:13:54.642Z,4.93
2019-06-15T02:16:21.366Z,4.73
2019-06-15T02:18:47.870Z,5.43
2019-06-15T02:21:14.443Z,5.27
2019-06-15T02:23:41.034Z,5.50
2019-06-15T02:26:07.620Z,5.63
2019-06-15T02:28:34.274Z,5.57
2019-06-15T02:31:01.040Z,5.30
2019-06-15T02:33:27.719Z,5.67
2019-06-15T02:35:54.597Z,5.83
2019-06-15T02:38:21.230Z,5.40
2019-06-15T02:40:47.727Z,5.13
2019-06-15T02:43:14.376Z,6.00
2019-06-15T02:45:42.200Z,5.57
2019-06-15T02:48:09.075Z,5.07
2019-06-15T02:50:35.934Z,5.23
2019-06-15T02:53:02.910Z,5.57
2019-06-15T02:55:29.411Z,5.73
2019-06-15T02:57:57.190Z,5.60
2019-06-15T03:00:38.045Z,5.17
2019-06-15T03:03:05.098Z,5.43
2019-06-15T03:05:31.727Z,6.53
2019-06-15T03:07:58.542Z,5.30
2019-06-15T03:10:26.290Z,5.33
2019-06-15T03:12:52.904Z,6.37
2019-06-15T03:15:37.812Z,7.30
2019-06-15T03:18:04.409Z,7.47
2019-06-15T03:20:30.923Z,6.87
2019-06-15T03:22:57.899Z,7.13
2019-06-15T03:25:24.812Z,7.23
2019-06-15T03:27:51.442Z,7.60
2019-06-15T03:30:22.290Z,6.03
2019-06-15T03:32:49.131Z,6.27
2019-06-15T03:35:15.763Z,6.57
2019-06-15T03:37:42.337Z,6.70
2019-06-15T03:40:09.986Z,5.97
2019-06-15T03:42:36.512Z,6.17
2019-06-15T03:45:03.565Z,6.03
2019-06-15T03:47:30.353Z,6.73
2019-06-15T03:49:56.928Z,6.63
2019-06-15T03:52:23.502Z,6.27
2019-06-15T03:54:50.023Z,5.87
2019-06-15T03:57:16.973Z,6.90
2019-06-15T03:59:43.591Z,6.13
2019-06-15T04:02:10.119Z,6.53
2019-06-15T04:04:36.651Z,6.10
2019-06-15T04:07:03.448Z,7.07
2019-06-15T04:09:30.033Z,6.13
2019-06-15T04:11:58.913Z,6.17
2019-06-15T04:14:25.768Z,6.00
2019-06-15T04:16:52.653Z,6.20
2019-06-15T04:19:19.211Z,6.43
2019-06-15T04:21:46.316Z,6.10
2019-06-15T04:24:13.256Z,6.33
2019-06-15T04:26:39.824Z,7.27
2019-06-15T04:29:07.598Z,5.73
2019-06-15T04:31:34.246Z,6.40
2019-06-15T04:34:01.375Z,7.10
2019-06-15T04:36:27.920Z,6.30
2019-06-15T04:38:54.463Z,6.50
2019-06-15T04:41:21.773Z,6.23
2019-06-15T04:43:50.437Z,6.47
2019-06-15T04:46:16.968Z,5.60
2019-06-15T04:48:43.588Z,6.00
2019-06-15T04:51:10.127Z,5.97
2019-06-15T04:53:36.775Z,5.23
2019-06-15T04:56:03.375Z,6.03
2019-06-15T04:58:29.937Z,5.57
2019-06-15T05:00:56.587Z,5.20
2019-06-15T05:03:23.113Z,5.30
2019-06-15T05:05:50.055Z,4.77
2019-06-15T05:08:16.531Z,4.87
2019-06-15T05:10:59.919Z,4.63
2019-06-15T05:13:26.894Z,5.13
2019-06-15T05:15:53.903Z,4.83
2019-06-15T05:18:20.453Z,4.07
2019-06-15T05:20:46.989Z,4.03
2019-06-15T05:23:13.530Z,4.50
2019-06-15T05:25:40.015Z,4.70
2019-06-15T05:28:07.143Z,5.17
2019-06-15T05:30:33.715Z,5.20
2019-06-15T05:33:00.497Z,6.07
2019-06-15T05:35:27.038Z,5.10
2019-06-15T05:37:54.252Z,5.47
2019-06-15T05:40:22.967Z,4.67
2019-06-15T05:42:49.498Z,5.07
2019-06-15T05:45:16.158Z,4.70
2019-06-15T05:47:42.733Z,4.47
2019-06-15T05:50:09.313Z,5.00
2019-06-15T05:52:36.188Z,5.30
2019-06-15T05:55:04.161Z,5.57
2019-06-15T05:57:30.828Z,4.90
2019-06-15T05:59:57.578Z,4.57
2019-06-15T06:02:24.922Z,4.93
2019-06-15T06:04:51.822Z,5.20
2019-06-15T06:07:18.640Z,5.47
2019-06-15T06:09:46.381Z,5.23
2019-06-15T06:12:13.016Z,4.80
2019-06-15T06:14:39.601Z,5.50
2019-06-15T06:17:06.464Z,4.97
2019-06-15T06:19:33.001Z,5.73
2019-06-15T06:21:59.522Z,4.93
2019-06-15T06:24:26.030Z,5.17
2019-06-15T06:26:52.834Z,5.07
2019-06-15T06:29:19.314Z,4.77
2019-06-15T06:31:46.212Z,5.00
2019-06-15T06:34:12.751Z,4.87
2019-06-15T06:36:39.292Z,4.47
2019-06-15T06:39:06.241Z,5.60
2019-06-15T06:41:36.136Z,4.10
2019-06-15T06:44:02.963Z,5.50
2019-06-15T06:46:31.110Z,4.73
2019-06-15T06:48:57.671Z,5.13
2019-06-15T06:51:24.156Z,5.15
2019-06-15T06:53:50.670Z,5.58
2019-06-15T06:56:17.267Z,5.97
2019-06-15T06:58:43.810Z,5.30
2019-06-15T07:01:10.882Z,4.65
2019-06-15T07:03:37.464Z,4.78
2019-06-15T07:06:04.487Z,4.53
2019-06-15T07:08:31.107Z,4.65
2019-06-15T07:10:57.628Z,4.87
2019-06-15T07:13:24.227Z,4.45
2019-06-15T07:15:50.831Z,4.58
2019-06-15T07:18:18.246Z,4.33
2019-06-15T07:20:45.859Z,4.33
2019-06-15T07:23:12.770Z,4.28
2019-06-15T07:25:39.278Z,3.70
2019-06-15T07:28:08.233Z,4.50
2019-06-15T07:30:34.444Z,4.00
2019-06-15T07:33:01.488Z,3.90
2019-06-15T07:35:28.022Z,3.77
2019-06-15T07:37:54.886Z,3.72
2019-06-15T07:40:21.422Z,3.80
2019-06-15T07:42:47.995Z,3.58
2019-06-15T07:45:14.721Z,2.80
2019-06-15T07:47:41.873Z,2.55
2019-06-15T07:50:09.762Z,2.98
2019-06-15T07:52:36.290Z,2.55
2019-06-15T07:55:03.510Z,3.45
2019-06-15T07:57:30.161Z,2.90
2019-06-15T07:59:56.803Z,2.98
2019-06-15T08:02:27.212Z,3.37
2019-06-15T08:04:53.773Z,3.20
2019-06-15T08:07:20.292Z,2.65
2019-06-15T08:09:46.903Z,2.92
2019-06-15T08:12:13.443Z,3.58
2019-06-15T08:14:40.187Z,4.00
2019-06-15T08:17:06.741Z,2.87
2019-06-15T08:19:33.474Z,3.05
2019-06-15T08:22:00.364Z,3.37
2019-06-15T08:24:27.141Z,2.67
2019-06-15T08:26:56.261Z,2.83
2019-06-15T08:29:23.273Z,3.12
2019-06-15T08:31:50.974Z,3.12
2019-06-15T08:34:17.616Z,3.08
2019-06-15T08:36:47.462Z,3.15
2019-06-15T08:39:13.991Z,3.22
2019-06-15T08:41:40.984Z,3.27
2019-06-15T08:44:07.690Z,3.15
2019-06-15T08:46:35.960Z,2.70
2019-06-15T08:49:02.651Z,3.25
2019-06-15T08:51:29.321Z,3.25
2019-06-15T08:53:56.080Z,3.50
2019-06-15T08:56:23.854Z,3.52
2019-06-15T08:58:55.562Z,3.20
2019-06-15T09:01:18.790Z,3.33
2019-06-15T09:03:45.439Z,3.35
2019-06-15T09:06:11.997Z,3.02
2019-06-15T09:08:38.599Z,3.58
2019-06-15T09:11:05.377Z,3.52
2019-06-15T09:15:59.928Z,3.67
2019-06-15T09:18:26.706Z,3.35
2019-06-15T09:20:53.198Z,3.15
2019-06-15T09:23:19.971Z,3.35
2019-06-15T09:25:46.662Z,2.42
2019-06-15T09:28:13.376Z,2.60
2019-06-15T09:30:40.315Z,2.20
2019-06-15T09:33:07.093Z,2.75
2019-06-15T09:35:35.786Z,2.70
2019-06-15T09:38:02.379Z,2.52
2019-06-15T09:40:29.051Z,2.20
2019-06-15T09:42:56.657Z,2.62
2019-06-15T09:45:23.156Z,2.70
2019-06-15T09:47:50.149Z,2.65
2019-06-15T09:50:18.713Z,3.08
2019-06-15T09:52:46.308Z,2.60
2019-06-15T09:55:12.969Z,2.95
2019-06-15T09:57:39.617Z,2.58
2019-06-15T10:00:06.624Z,3.05
2019-06-15T10:02:33.348Z,2.65
2019-06-15T10:04:59.938Z,2.30
2019-06-15T10:07:26.486Z,2.52
2019-06-15T10:09:53.086Z,3.27
2019-06-15T10:12:20.581Z,2.20
2019-06-15T10:14:47.235Z,2.17
2019-06-15T10:17:13.916Z,2.67
2019-06-15T10:19:40.780Z,2.70
2019-06-15T10:22:07.516Z,2.67
2019-06-15T10:24:34.163Z,2.05
2019-06-15T10:27:00.904Z,2.40
2019-06-15T10:29:41.218Z,2.62
2019-06-15T10:31:57.023Z,2.25
2019-06-15T10:34:24.073Z,2.20
2019-06-15T10:36:50.821Z,2.17
2019-06-15T10:39:17.569Z,2.45
2019-06-15T10:41:44.166Z,2.17
2019-06-15T10:44:10.858Z,2.30
2019-06-15T10:46:48.011Z,2.30
2019-06-15T10:49:14.663Z,1.90
2019-06-15T10:51:45.189Z,1.67
2019-06-15T10:54:11.858Z,2.40
2019-06-15T10:56:47.962Z,2.27
2019-06-15T10:59:17.343Z,2.42
2019-06-15T11:01:43.993Z,2.30
2019-06-15T11:04:10.635Z,1.90
2019-06-15T11:06:43.696Z,1.77
2019-06-15T11:09:10.307Z,2.05
2019-06-15T11:11:37.122Z,2.45
2019-06-15T11:14:06.078Z,2.35
2019-06-15T11:16:32.737Z,1.98
2019-06-15T11:19:00.557Z,2.20
2019-06-15T11:21:27.217Z,1.90
2019-06-15T11:23:54.070Z,2.08
2019-06-15T11:26:20.654Z,2.10
2019-06-15T11:28:47.285Z,1.98
2019-06-15T11:31:16.561Z,2.02
2019-06-15T11:33:45.422Z,2.05
2019-06-15T11:36:12.261Z,1.62
2019-06-15T11:38:39.847Z,2.02
2019-06-15T11:41:09.523Z,2.25
2019-06-15T11:43:40.129Z,1.98
2019-06-15T11:46:07.172Z,1.80
2019-06-15T11:48:33.775Z,1.92
2019-06-15T11:51:00.639Z,1.90
2019-06-15T11:53:27.487Z,2.17
2019-06-15T11:55:54.417Z,1.80
2019-06-15T11:58:21.828Z,1.95
2019-06-15T12:00:48.344Z,1.92
2019-06-15T12:03:16.286Z,2.20
2019-06-15T12:05:43.083Z,1.62
2019-06-15T12:08:13.835Z,2.20
2019-06-15T12:10:40.937Z,2.02
2019-06-15T12:13:08.552Z,1.72
2019-06-15T12:15:35.101Z,1.70
2019-06-15T12:18:01.713Z,1.62
2019-06-15T12:20:28.224Z,1.77
2019-06-15T12:22:54.884Z,1.80
2019-06-15T12:25:21.510Z,1.45
2019-06-15T12:27:50.682Z,1.32
2019-06-15T12:30:24.445Z,0.90
2019-06-15T12:32:51.037Z,1.35
2019-06-15T12:35:18.029Z,1.10
2019-06-15T12:37:48.579Z,1.15
2019-06-15T12:40:15.490Z,1.10
2019-06-15T12:42:42.624Z,1.10
2019-06-15T12:45:10.298Z,1.65
2019-06-15T12:47:36.902Z,1.35
2019-06-15T12:50:04.627Z,1.45
2019-06-15T12:52:33.504Z,1.10
2019-06-15T12:55:00.104Z,1.27
2019-06-15T12:57:26.650Z,1.20
2019-06-15T12:59:53.154Z,1.40
2019-06-15T13:02:19.834Z,1.52
2019-06-15T13:04:46.406Z,1.15
2019-06-15T13:07:13.022Z,1.50
2019-06-15T13:09:39.725Z,1.35
2019-06-15T13:12:06.523Z,1.12
2019-06-15T13:14:33.292Z,1.20
2019-06-15T13:16:59.803Z,1.60
2019-06-15T13:19:26.590Z,1.45
2019-06-15T13:21:53.211Z,1.70
2019-06-15T13:24:19.888Z,1.50
2019-06-15T13:26:46.386Z,1.50
2019-06-15T13:29:13.236Z,1.05
2019-06-15T13:31:39.845Z,1.50
2019-06-15T13:34:06.362Z,1.47
2019-06-15T13:36:32.943Z,1.30
2019-06-15T13:39:00.873Z,0.98
2019-06-15T13:41:27.381Z,1.15
2019-06-15T13:43:54.183Z,1.30
2019-06-15T13:46:21.236Z,1.10
2019-06-15T13:48:47.948Z,1.42
2019-06-15T13:51:14.459Z,1.20
2019-06-15T13:53:41.242Z,1.37
2019-06-15T13:56:07.941Z,1.45
2019-06-15T13:58:34.545Z,1.52
2019-06-15T14:01:01.396Z,1.17
2019-06-15T14:03:28.030Z,1.32
2019-06-15T14:05:54.621Z,1.62
2019-06-15T14:08:21.298Z,1.25
2019-06-15T14:10:47.889Z,1.02
2019-06-15T14:13:14.603Z,1.32
2019-06-15T14:15:41.146Z,1.27
2019-06-15T14:18:08.448Z,1.00
2019-06-15T14:20:34.984Z,1.25
2019-06-15T14:23:01.527Z,0.95
2019-06-15T14:25:30.717Z,0.88
2019-06-15T14:27:57.670Z,0.88
2019-06-15T14:30:24.295Z,0.88
2019-06-15T14:32:50.963Z,1.17
2019-06-15T14:35:17.612Z,0.93
2019-06-15T14:40:24.642Z,0.80
2019-06-15T14:42:51.243Z,0.85
2019-06-15T14:45:17.864Z,0.60
2019-06-15T14:47:44.690Z,0.70
2019-06-15T14:50:11.302Z,0.85
2019-06-15T14:52:38.244Z,0.80
2019-06-15T14:55:07.262Z,1.10
2019-06-15T14:57:36.131Z,0.78
2019-06-15T15:00:05.919Z,0.70
2019-06-15T15:02:36.973Z,0.90
2019-06-15T15:05:03.605Z,1.05
2019-06-15T15:07:30.530Z,0.80
2019-06-15T15:09:57.315Z,0.98
2019-06-15T15:12:26.354Z,0.80
2019-06-15T15:14:56.574Z,0.80
2019-06-15T15:17:23.362Z,1.00
2019-06-15T15:19:49.871Z,0.90
2019-06-15T15:22:16.602Z,0.90
2019-06-15T15:24:43.475Z,0.70
2019-06-15T15:27:10.023Z,0.70
2019-06-15T15:29:36.594Z,0.90
2019-06-15T15:32:03.198Z,0.70
2019-06-15T15:34:29.954Z,1.05
2019-06-15T15:36:56.945Z,1.12
2019-06-15T15:39:23.536Z,1.00
2019-06-15T15:41:50.122Z,0.75
2019-06-15T15:44:16.895Z,1.02
2019-06-15T15:46:46.211Z,1.00
2019-06-15T15:49:13.134Z,0.70
2019-06-15T15:51:39.940Z,1.12
2019-06-15T15:54:07.302Z,0.60
2019-06-15T15:56:36.749Z,0.75
2019-06-15T15:59:03.537Z,0.72
2019-06-15T16:01:36.988Z,1.00
2019-06-15T16:04:03.389Z,6.40
2019-06-15T16:06:30.443Z,2.87
2019-06-15T16:08:57.081Z,3.55
2019-06-15T16:11:23.664Z,2.22
2019-06-15T16:13:56.336Z,5.47
2019-06-15T16:16:22.202Z,2.12
2019-06-15T16:18:51.905Z,1.20
2019-06-15T16:21:18.471Z,0.80
2019-06-15T16:23:46.262Z,2.10
2019-06-15T16:26:16.583Z,1.00
2019-06-15T16:28:45.940Z,0.90
2019-06-15T16:31:13.815Z,1.02
2019-06-15T16:33:41.796Z,1.17
2019-06-15T16:36:08.680Z,0.90
2019-06-15T16:38:36.552Z,0.85
2019-06-15T16:41:03.383Z,0.80
2019-06-15T16:43:30.197Z,0.90
2019-06-15T16:45:57.185Z,0.90
2019-06-15T16:48:25.961Z,1.02
2019-06-15T16:50:54.442Z,1.02
2019-06-15T16:53:21.258Z,1.10
2019-06-15T16:55:48.653Z,1.10
2019-06-15T16:58:16.150Z,0.90
2019-06-15T17:00:42.982Z,0.88
2019-06-15T17:03:21.043Z,1.00
2019-06-15T17:05:37.924Z,1.33
2019-06-15T17:08:07.007Z,1.22
2019-06-15T17:10:36.765Z,0.82
2019-06-15T17:13:03.515Z,1.98
2019-06-15T17:15:30.065Z,0.98
2019-06-15T17:17:56.606Z,1.20
2019-06-15T17:20:27.536Z,1.55
2019-06-15T17:22:56.235Z,1.17
2019-06-15T17:25:22.587Z,2.08
2019-06-15T17:27:49.233Z,2.65
2019-06-15T17:30:17.234Z,2.70
2019-06-15T17:32:44.187Z,1.30
2019-06-15T17:35:10.753Z,1.60
2019-06-15T17:37:37.253Z,1.87
2019-06-15T17:40:04.521Z,1.57
2019-06-15T17:42:31.051Z,1.27
2019-06-15T17:44:57.660Z,1.25
2019-06-15T17:47:26.229Z,0.90
2019-06-15T17:49:52.591Z,1.00
2019-06-15T17:52:19.089Z,1.00
2019-06-15T17:54:46.680Z,0.80
2019-06-15T17:57:13.452Z,0.85
2019-06-15T17:59:40.302Z,0.72
2019-06-15T18:02:06.917Z,0.95
2019-06-15T18:04:37.111Z,1.25
2019-06-15T18:07:02.683Z,0.62
2019-06-15T18:09:29.515Z,0.80
2019-06-15T18:11:58.673Z,0.80
2019-06-15T18:14:26.378Z,0.90
2019-06-15T18:16:59.046Z,0.75
2019-06-15T18:19:26.146Z,0.77
2019-06-15T18:21:52.775Z,0.80
2019-06-15T18:24:19.684Z,0.70
2019-06-15T18:26:50.379Z,0.90
2019-06-15T18:29:26.421Z,0.82
2019-06-15T18:31:53.110Z,0.78
2019-06-15T18:34:21.502Z,0.90
2019-06-15T18:36:47.990Z,0.60
2019-06-15T18:39:16.542Z,0.90
2019-06-15T18:41:43.151Z,0.83
2019-06-15T18:44:09.732Z,0.90
2019-06-15T18:46:36.849Z,0.80
2019-06-15T18:49:06.519Z,1.00
2019-06-15T18:51:32.241Z,0.60
2019-06-15T18:53:58.753Z,0.83
2019-06-15T18:56:27.098Z,0.90
2019-06-15T18:58:56.158Z,0.80
2019-06-15T19:01:22.963Z,0.97
2019-06-15T19:03:49.530Z,0.97
2019-06-15T19:06:16.898Z,0.83
2019-06-15T19:08:46.630Z,0.80
2019-06-15T19:11:12.780Z,0.97
2019-06-15T19:13:39.398Z,0.90
2019-06-15T19:16:06.950Z,1.00
2019-06-15T19:18:33.817Z,0.80
2019-06-15T19:21:00.766Z,0.97
2019-06-15T19:23:27.799Z,0.80
2019-06-15T19:25:57.076Z,0.90
2019-06-15T19:28:23.292Z,0.77
2019-06-15T19:30:49.943Z,1.10
2019-06-15T19:33:16.532Z,0.97
2019-06-15T19:35:43.157Z,1.00
2019-06-15T19:38:11.719Z,0.90
2019-06-15T19:40:38.492Z,1.00
2019-06-15T19:43:06.548Z,1.17
2019-06-15T19:45:42.378Z,1.10
2019-06-15T19:48:08.873Z,1.20
2019-06-15T19:50:36.250Z,1.10
2019-06-15T19:53:03.381Z,1.10
2019-06-15T19:55:29.869Z,1.20
2019-06-15T19:57:56.926Z,1.47
2019-06-15T20:00:23.673Z,1.50
2019-06-15T20:02:52.398Z,1.40
2019-06-15T20:05:23.091Z,1.60
2019-06-15T20:07:49.644Z,1.50
2019-06-15T20:10:16.637Z,1.37
2019-06-15T20:12:43.616Z,1.50
2019-06-15T20:15:11.326Z,1.57
2019-06-15T20:17:37.789Z,1.73
2019-06-15T20:20:06.959Z,1.70
2019-06-15T20:22:37.238Z,1.43
2019-06-15T20:25:06.462Z,2.10
2019-06-15T20:27:34.106Z,1.70
2019-06-15T20:30:00.617Z,2.27
2019-06-15T20:32:27.525Z,2.07
2019-06-15T20:34:54.076Z,2.33
2019-06-15T20:37:20.693Z,1.77
2019-06-15T20:39:47.144Z,2.17
2019-06-15T20:42:16.474Z,2.07
2019-06-15T20:44:43.121Z,2.10
2019-06-15T20:47:09.720Z,1.83
2019-06-15T20:49:36.951Z,1.93
2019-06-15T20:52:03.675Z,1.90
2019-06-15T20:54:30.335Z,2.10
2019-06-15T20:56:57.065Z,2.20
2019-06-15T20:59:26.074Z,2.17
2019-06-15T21:01:52.955Z,2.27
2019-06-15T21:04:19.462Z,2.70
2019-06-15T21:06:46.283Z,3.13
2019-06-15T21:09:16.390Z,2.50
2019-06-15T21:11:43.356Z,2.00
2019-06-15T21:14:15.864Z,2.60
2019-06-15T21:16:46.315Z,2.27
2019-06-15T21:19:13.951Z,2.73
2019-06-15T21:21:40.480Z,2.70
2019-06-15T21:24:08.005Z,2.70
2019-06-15T21:26:34.628Z,2.30
2019-06-15T21:29:01.203Z,2.63
2019-06-15T21:31:27.885Z,2.60
2019-06-15T21:33:56.118Z,2.80
2019-06-15T21:36:22.668Z,3.17
2019-06-15T21:38:51.469Z,2.97
2019-06-15T21:41:18.279Z,3.03
2019-06-15T21:43:47.011Z,3.33
2019-06-15T21:46:13.615Z,3.10
2019-06-15T21:48:40.158Z,3.00
2019-06-15T21:51:07.821Z,3.00
2019-06-15T21:53:36.165Z,3.20
2019-06-15T21:56:03.113Z,3.03
2019-06-15T21:58:29.969Z,2.43
2019-06-15T22:01:11.805Z,2.83
2019-06-15T22:03:38.414Z,3.07
2019-06-15T22:06:06.405Z,3.00
2019-06-15T22:08:33.284Z,2.93
2019-06-15T22:11:01.925Z,2.70
2019-06-15T22:13:28.404Z,3.07
2019-06-15T22:15:56.207Z,3.07
2019-06-15T22:18:22.684Z,3.10
2019-06-15T22:20:49.272Z,3.10
2019-06-15T22:23:16.355Z,3.40
2019-06-15T22:25:43.290Z,3.50
2019-06-15T22:28:09.797Z,2.80
2019-06-15T22:30:36.717Z,3.50
2019-06-15T22:33:03.535Z,3.70
2019-06-15T22:35:30.214Z,3.50
2019-06-15T22:37:56.680Z,3.50
2019-06-15T22:40:23.216Z,3.33
2019-06-15T22:42:49.702Z,2.90
2019-06-15T22:45:29.680Z,3.57
2019-06-15T22:47:56.134Z,4.37
2019-06-15T22:50:22.671Z,3.20
2019-06-15T22:52:49.180Z,3.30
2019-06-15T22:55:16.553Z,2.97
2019-06-15T22:57:43.193Z,3.60
2019-06-15T23:00:09.864Z,3.40
2019-06-15T23:02:36.442Z,3.70
2019-06-15T23:05:06.296Z,3.87
2019-06-15T23:07:32.000Z,3.87
2019-06-15T23:09:58.505Z,4.17
2019-06-15T23:12:24.980Z,3.17
2019-06-15T23:14:52.599Z,3.27
2019-06-15T23:17:19.359Z,3.37
2019-06-15T23:19:46.181Z,3.47
2019-06-15T23:22:12.789Z,3.97
2019-06-15T23:24:39.650Z,3.43
2019-06-15T23:27:06.924Z,3.90
2019-06-15T23:29:33.585Z,4.10
2019-06-15T23:32:01.620Z,3.93
2019-06-15T23:34:28.471Z,4.00
2019-06-15T23:37:00.427Z,3.27
2019-06-15T23:39:27.030Z,3.37
2019-06-15T23:41:56.229Z,3.80
2019-06-15T23:44:27.013Z,3.60
2019-06-15T23:46:53.720Z,3.60
2019-06-15T23:49:20.202Z,3.80
2019-06-15T23:51:46.893Z,3.87
2019-06-15T23:54:13.420Z,3.67
2019-06-15T23:56:40.962Z,3.93
2019-06-15T23:59:07.533Z,3.77
